sensor_id;sensor_type;location;lat;lon;timestamp;pressure;altitude;pressure_sealevel;temperature;humidity
51452;BME280;37521;52.020;-1.740;2023-04-06T00:00:07;99702.34;;;6.20;100.00
51452;BME280;37521;52.020;-1.740;2023-04-06T00:02:36;99698.81;;;6.21;100.00
51452;BME280;37521;52.020;-1.740;2023-04-06T00:05:06;99686.59;;;6.20;100.00
51452;BME280;37521;52.020;-1.740;2023-04-06T00:07:34;99686.53;;;6.23;100.00
51452;BME280;37521;52.020;-1.740;2023-04-06T00:10:03;99689.94;;;6.25;100.00
51452;BME280;37521;52.020;-1.740;2023-04-06T00:12:31;99682.03;;;6.26;100.00
51452;BME280;37521;52.020;-1.740;2023-04-06T00:15:00;99681.09;;;6.27;100.00
51452;BME280;37521;52.020;-1.740;2023-04-06T00:17:28;99676.69;;;6.30;100.00
51452;BME280;37521;52.020;-1.740;2023-04-06T00:19:57;99667.91;;;6.31;100.00
51452;BME280;37521;52.020;-1.740;2023-04-06T00:22:26;99663.53;;;6.31;100.00
51452;BME280;37521;52.020;-1.740;2023-04-06T00:24:54;99659.00;;;6.35;100.00
51452;BME280;37521;52.020;-1.740;2023-04-06T00:27:23;99658.16;;;6.34;100.00
51452;BME280;37521;52.020;-1.740;2023-04-06T00:29:51;99656.34;;;6.36;100.00
51452;BME280;37521;52.020;-1.740;2023-04-06T00:32:19;99657.22;;;6.37;100.00
51452;BME280;37521;52.020;-1.740;2023-04-06T00:34:48;99653.69;;;6.38;100.00
51452;BME280;37521;52.020;-1.740;2023-04-06T00:37:16;99654.53;;;6.38;100.00
51452;BME280;37521;52.020;-1.740;2023-04-06T00:39:47;99644.03;;;6.38;100.00
51452;BME280;37521;52.020;-1.740;2023-04-06T00:42:15;99646.59;;;6.40;100.00
51452;BME280;37521;52.020;-1.740;2023-04-06T00:44:44;99638.66;;;6.41;100.00
51452;BME280;37521;52.020;-1.740;2023-04-06T00:47:13;99643.03;;;6.42;100.00
51452;BME280;37521;52.020;-1.740;2023-04-06T00:49:41;99642.06;;;6.45;100.00
51452;BME280;37521;52.020;-1.740;2023-04-06T00:52:09;99628.03;;;6.46;100.00
51452;BME280;37521;52.020;-1.740;2023-04-06T00:54:38;99619.19;;;6.48;100.00
51452;BME280;37521;52.020;-1.740;2023-04-06T00:57:08;99627.06;;;6.48;100.00
51452;BME280;37521;52.020;-1.740;2023-04-06T00:59:37;99621.78;;;6.50;100.00
51452;BME280;37521;52.020;-1.740;2023-04-06T01:02:08;99621.78;;;6.50;100.00
51452;BME280;37521;52.020;-1.740;2023-04-06T01:04:44;99620.81;;;6.52;100.00
51452;BME280;37521;52.020;-1.740;2023-04-06T01:07:21;99622.50;;;6.53;100.00
51452;BME280;37521;52.020;-1.740;2023-04-06T01:10:02;99625.94;;;6.55;100.00
51452;BME280;37521;52.020;-1.740;2023-04-06T01:12:34;99617.16;;;6.57;100.00
51452;BME280;37521;52.020;-1.740;2023-04-06T01:15:08;99621.44;;;6.59;100.00
51452;BME280;37521;52.020;-1.740;2023-04-06T01:17:40;99612.66;;;6.60;100.00
51452;BME280;37521;52.020;-1.740;2023-04-06T01:20:13;99604.72;;;6.62;100.00
51452;BME280;37521;52.020;-1.740;2023-04-06T01:22:43;99606.44;;;6.63;100.00
51452;BME280;37521;52.020;-1.740;2023-04-06T01:25:12;99607.31;;;6.63;100.00
51452;BME280;37521;52.020;-1.740;2023-04-06T01:27:50;99602.91;;;6.64;100.00
51452;BME280;37521;52.020;-1.740;2023-04-06T01:30:23;99592.41;;;6.64;100.00
51452;BME280;37521;52.020;-1.740;2023-04-06T01:33:01;99588.88;;;6.65;100.00
51452;BME280;37521;52.020;-1.740;2023-04-06T01:35:49;99590.59;;;6.66;100.00
51452;BME280;37521;52.020;-1.740;2023-04-06T01:38:20;99589.78;;;6.64;100.00
51452;BME280;37521;52.020;-1.740;2023-04-06T01:40:49;99578.47;;;6.62;100.00
51452;BME280;37521;52.020;-1.740;2023-04-06T01:43:20;99578.53;;;6.60;100.00
51452;BME280;37521;52.020;-1.740;2023-04-06T01:45:59;99570.91;;;6.54;100.00
51452;BME280;37521;52.020;-1.740;2023-04-06T01:48:33;99561.25;;;6.54;100.00
51452;BME280;37521;52.020;-1.740;2023-04-06T01:51:10;99564.81;;;6.53;100.00
51452;BME280;37521;52.020;-1.740;2023-04-06T01:53:48;99563.22;;;6.49;100.00
51452;BME280;37521;52.020;-1.740;2023-04-06T01:56:19;99567.63;;;6.49;100.00
51452;BME280;37521;52.020;-1.740;2023-04-06T01:58:59;99559.75;;;6.49;100.00
51452;BME280;37521;52.020;-1.740;2023-04-06T02:01:35;99554.50;;;6.49;100.00
51452;BME280;37521;52.020;-1.740;2023-04-06T02:04:03;99552.72;;;6.49;100.00
51452;BME280;37521;52.020;-1.740;2023-04-06T02:06:32;99560.63;;;6.48;100.00
51452;BME280;37521;52.020;-1.740;2023-04-06T02:09:03;99556.25;;;6.48;100.00
51452;BME280;37521;52.020;-1.740;2023-04-06T02:11:32;99556.31;;;6.47;100.00
51452;BME280;37521;52.020;-1.740;2023-04-06T02:14:00;99547.50;;;6.49;100.00
51452;BME280;37521;52.020;-1.740;2023-04-06T02:16:32;99544.00;;;6.49;100.00
51452;BME280;37521;52.020;-1.740;2023-04-06T02:19:00;99537.00;;;6.49;100.00
51452;BME280;37521;52.020;-1.740;2023-04-06T02:21:28;99546.44;;;6.53;100.00
51452;BME280;37521;52.020;-1.740;2023-04-06T02:23:58;99534.41;;;6.48;100.00
51452;BME280;37521;52.020;-1.740;2023-04-06T02:26:27;99535.38;;;6.45;100.00
51452;BME280;37521;52.020;-1.740;2023-04-06T02:28:55;99541.66;;;6.41;100.00
51452;BME280;37521;52.020;-1.740;2023-04-06T02:31:24;99534.00;;;6.35;100.00
51452;BME280;37521;52.020;-1.740;2023-04-06T02:33:53;99530.59;;;6.33;100.00
51452;BME280;37521;52.020;-1.740;2023-04-06T02:36:22;99535.75;;;6.36;100.00
51452;BME280;37521;52.020;-1.740;2023-04-06T02:38:50;99524.28;;;6.39;100.00
51452;BME280;37521;52.020;-1.740;2023-04-06T02:41:19;99528.53;;;6.41;100.00
51452;BME280;37521;52.020;-1.740;2023-04-06T02:43:49;99519.78;;;6.42;100.00
51452;BME280;37521;52.020;-1.740;2023-04-06T02:46:27;99523.97;;;6.46;100.00
51452;BME280;37521;52.020;-1.740;2023-04-06T02:48:55;99518.72;;;6.46;100.00
51452;BME280;37521;52.020;-1.740;2023-04-06T02:51:30;99516.97;;;6.47;100.00
51452;BME280;37521;52.020;-1.740;2023-04-06T02:54:08;99509.91;;;6.49;100.00
51452;BME280;37521;52.020;-1.740;2023-04-06T02:56:37;99509.84;;;6.50;100.00
51452;BME280;37521;52.020;-1.740;2023-04-06T02:59:07;99502.78;;;6.52;100.00
51452;BME280;37521;52.020;-1.740;2023-04-06T03:01:36;99507.94;;;6.54;100.00
51452;BME280;37521;52.020;-1.740;2023-04-06T03:04:05;99520.13;;;6.57;100.00
51452;BME280;37521;52.020;-1.740;2023-04-06T03:06:33;99522.75;;;6.57;100.00
51452;BME280;37521;52.020;-1.740;2023-04-06T03:09:11;99520.78;;;6.62;100.00
51452;BME280;37521;52.020;-1.740;2023-04-06T03:11:43;99514.50;;;6.66;100.00
51452;BME280;37521;52.020;-1.740;2023-04-06T03:14:12;99506.53;;;6.69;100.00
51452;BME280;37521;52.020;-1.740;2023-04-06T03:16:41;99505.66;;;6.68;100.00
51452;BME280;37521;52.020;-1.740;2023-04-06T03:19:12;99511.78;;;6.69;100.00
51452;BME280;37521;52.020;-1.740;2023-04-06T03:21:40;99507.31;;;6.71;100.00
51452;BME280;37521;52.020;-1.740;2023-04-06T03:24:09;99493.16;;;6.75;100.00
51452;BME280;37521;52.020;-1.740;2023-04-06T03:26:37;99493.84;;;6.80;100.00
51452;BME280;37521;52.020;-1.740;2023-04-06T03:29:07;99493.72;;;6.83;100.00
51452;BME280;37521;52.020;-1.740;2023-04-06T03:31:37;99486.66;;;6.85;100.00
51452;BME280;37521;52.020;-1.740;2023-04-06T03:34:14;99491.75;;;6.88;100.00
51452;BME280;37521;52.020;-1.740;2023-04-06T03:36:42;99484.72;;;6.90;100.00
51452;BME280;37521;52.020;-1.740;2023-04-06T03:39:10;99482.09;;;6.90;100.00
51452;BME280;37521;52.020;-1.740;2023-04-06T03:41:42;99482.09;;;6.90;100.00
51452;BME280;37521;52.020;-1.740;2023-04-06T03:44:29;99468.09;;;6.90;100.00
51452;BME280;37521;52.020;-1.740;2023-04-06T03:47:00;99460.16;;;6.91;100.00
51452;BME280;37521;52.020;-1.740;2023-04-06T03:49:29;99462.91;;;6.88;100.00
51452;BME280;37521;52.020;-1.740;2023-04-06T03:52:00;99463.75;;;6.89;100.00
51452;BME280;37521;52.020;-1.740;2023-04-06T03:54:28;99444.53;;;6.88;100.00
51452;BME280;37521;52.020;-1.740;2023-04-06T03:56:57;99447.09;;;6.90;100.00
51452;BME280;37521;52.020;-1.740;2023-04-06T03:59:26;99443.56;;;6.91;100.00
51452;BME280;37521;52.020;-1.740;2023-04-06T04:01:54;99436.47;;;6.93;100.00
51452;BME280;37521;52.020;-1.740;2023-04-06T04:04:24;99446.97;;;6.93;100.00
51452;BME280;37521;52.020;-1.740;2023-04-06T04:06:52;99445.97;;;6.95;100.00
51452;BME280;37521;52.020;-1.740;2023-04-06T04:09:20;99433.78;;;6.94;100.00
51452;BME280;37521;52.020;-1.740;2023-04-06T04:11:50;99436.38;;;6.96;100.00
51452;BME280;37521;52.020;-1.740;2023-04-06T04:14:19;99426.75;;;6.95;100.00
51452;BME280;37521;52.020;-1.740;2023-04-06T04:16:47;99433.75;;;6.96;100.00
51452;BME280;37521;52.020;-1.740;2023-04-06T04:19:17;99429.34;;;6.96;100.00
51452;BME280;37521;52.020;-1.740;2023-04-06T04:21:47;99423.28;;;6.94;100.00
51452;BME280;37521;52.020;-1.740;2023-04-06T04:24:19;99420.81;;;6.91;100.00
51452;BME280;37521;52.020;-1.740;2023-04-06T04:26:48;99426.97;;;6.90;100.00
51452;BME280;37521;52.020;-1.740;2023-04-06T04:29:16;99413.00;;;6.90;100.00
51452;BME280;37521;52.020;-1.740;2023-04-06T04:31:49;99414.78;;;6.89;100.00
51452;BME280;37521;52.020;-1.740;2023-04-06T04:34:19;99417.50;;;6.86;100.00
51452;BME280;37521;52.020;-1.740;2023-04-06T04:36:52;99415.97;;;6.80;100.00
51452;BME280;37521;52.020;-1.740;2023-04-06T04:39:30;99424.16;;;6.73;100.00
51452;BME280;37521;52.020;-1.740;2023-04-06T04:42:03;99425.06;;;6.72;100.00
51452;BME280;37521;52.020;-1.740;2023-04-06T04:44:34;99430.47;;;6.69;100.00
51452;BME280;37521;52.020;-1.740;2023-04-06T04:47:03;99433.13;;;6.67;100.00
51452;BME280;37521;52.020;-1.740;2023-04-06T04:49:40;99437.50;;;6.67;100.00
51452;BME280;37521;52.020;-1.740;2023-04-06T04:52:12;99434.88;;;6.67;100.00
51452;BME280;37521;52.020;-1.740;2023-04-06T04:54:51;99454.94;;;6.69;100.00
51452;BME280;37521;52.020;-1.740;2023-04-06T04:57:24;99458.41;;;6.70;100.00
51452;BME280;37521;52.020;-1.740;2023-04-06T04:59:52;99467.97;;;6.71;100.00
51452;BME280;37521;52.020;-1.740;2023-04-06T05:02:23;99468.75;;;6.73;100.00
51452;BME280;37521;52.020;-1.740;2023-04-06T05:05:08;99480.03;;;6.75;100.00
51452;BME280;37521;52.020;-1.740;2023-04-06T05:07:40;99478.22;;;6.77;100.00
51452;BME280;37521;52.020;-1.740;2023-04-06T05:10:14;99474.69;;;6.78;100.00
51452;BME280;37521;52.020;-1.740;2023-04-06T05:12:51;99456.19;;;6.81;100.00
51452;BME280;37521;52.020;-1.740;2023-04-06T05:15:20;99448.31;;;6.81;100.00
51452;BME280;37521;52.020;-1.740;2023-04-06T05:17:52;99451.94;;;6.78;100.00
51452;BME280;37521;52.020;-1.740;2023-04-06T05:20:25;99451.13;;;6.76;100.00
51452;BME280;37521;52.020;-1.740;2023-04-06T05:22:56;99448.69;;;6.72;100.00
51452;BME280;37521;52.020;-1.740;2023-04-06T05:25:24;99443.75;;;6.64;100.00
51452;BME280;37521;52.020;-1.740;2023-04-06T05:27:56;99442.34;;;6.55;100.00
51452;BME280;37521;52.020;-1.740;2023-04-06T05:30:29;99439.81;;;6.52;100.00
51452;BME280;37521;52.020;-1.740;2023-04-06T05:32:58;99431.09;;;6.52;100.00
51452;BME280;37521;52.020;-1.740;2023-04-06T05:35:35;99437.22;;;6.52;100.00
51452;BME280;37521;52.020;-1.740;2023-04-06T05:38:11;99438.91;;;6.53;100.00
51452;BME280;37521;52.020;-1.740;2023-04-06T05:40:39;99432.75;;;6.54;100.00
51452;BME280;37521;52.020;-1.740;2023-04-06T05:43:13;99435.38;;;6.54;100.00
51452;BME280;37521;52.020;-1.740;2023-04-06T05:45:44;99431.03;;;6.53;100.00
51452;BME280;37521;52.020;-1.740;2023-04-06T05:48:13;99436.41;;;6.50;100.00
51452;BME280;37521;52.020;-1.740;2023-04-06T05:50:41;99430.34;;;6.48;100.00
51452;BME280;37521;52.020;-1.740;2023-04-06T05:53:14;99437.44;;;6.46;100.00
51452;BME280;37521;52.020;-1.740;2023-04-06T05:55:50;99445.31;;;6.46;100.00
51452;BME280;37521;52.020;-1.740;2023-04-06T05:58:20;99444.53;;;6.44;100.00
51452;BME280;37521;52.020;-1.740;2023-04-06T06:00:56;99453.34;;;6.42;100.00
51452;BME280;37521;52.020;-1.740;2023-04-06T06:03:27;99447.22;;;6.43;100.00
51452;BME280;37521;52.020;-1.740;2023-04-06T06:06:00;99448.06;;;6.43;100.00
51452;BME280;37521;52.020;-1.740;2023-04-06T06:08:44;99450.63;;;6.45;100.00
51452;BME280;37521;52.020;-1.740;2023-04-06T06:11:15;99458.41;;;6.46;100.00
51452;BME280;37521;52.020;-1.740;2023-04-06T06:13:43;99447.94;;;6.46;100.00
51452;BME280;37521;52.020;-1.740;2023-04-06T06:16:12;99458.41;;;6.46;100.00
51452;BME280;37521;52.020;-1.740;2023-04-06T06:18:44;99461.03;;;6.46;100.00
51452;BME280;37521;52.020;-1.740;2023-04-06T06:21:13;99465.38;;;6.47;100.00
51452;BME280;37521;52.020;-1.740;2023-04-06T06:23:45;99462.66;;;6.50;100.00
51452;BME280;37521;52.020;-1.740;2023-04-06T06:26:18;99460.81;;;6.52;100.00
51452;BME280;37521;52.020;-1.740;2023-04-06T06:28:48;99460.75;;;6.54;100.00
51452;BME280;37521;52.020;-1.740;2023-04-06T06:31:17;99465.06;;;6.55;100.00
51452;BME280;37521;52.020;-1.740;2023-04-06T06:33:47;99465.13;;;6.53;100.00
51452;BME280;37521;52.020;-1.740;2023-04-06T06:36:19;99468.69;;;6.52;100.00
51452;BME280;37521;52.020;-1.740;2023-04-06T06:38:49;99468.69;;;6.52;100.00
51452;BME280;37521;52.020;-1.740;2023-04-06T06:41:20;99483.63;;;6.50;100.00
51452;BME280;37521;52.020;-1.740;2023-04-06T06:43:49;99476.69;;;6.49;100.00
51452;BME280;37521;52.020;-1.740;2023-04-06T06:46:17;99481.09;;;6.47;100.00
51452;BME280;37521;52.020;-1.740;2023-04-06T06:48:45;99480.19;;;6.48;100.00
51452;BME280;37521;52.020;-1.740;2023-04-06T06:51:14;99491.50;;;6.50;100.00
51452;BME280;37521;52.020;-1.740;2023-04-06T06:53:42;99493.06;;;6.54;100.00
51452;BME280;37521;52.020;-1.740;2023-04-06T06:56:12;99502.53;;;6.59;100.00
51452;BME280;37521;52.020;-1.740;2023-04-06T06:58:41;99506.88;;;6.60;100.00
51452;BME280;37521;52.020;-1.740;2023-04-06T07:01:09;99509.41;;;6.63;100.00
51452;BME280;37521;52.020;-1.740;2023-04-06T07:03:37;99510.28;;;6.62;100.00
51452;BME280;37521;52.020;-1.740;2023-04-06T07:06:06;99508.56;;;6.61;100.00
51452;BME280;37521;52.020;-1.740;2023-04-06T07:08:34;99504.47;;;6.53;100.00
51452;BME280;37521;52.020;-1.740;2023-04-06T07:11:03;99514.41;;;6.45;100.00
51452;BME280;37521;52.020;-1.740;2023-04-06T07:13:32;99518.25;;;6.37;100.00
51452;BME280;37521;52.020;-1.740;2023-04-06T07:16:02;99526.19;;;6.34;100.00
51452;BME280;37521;52.020;-1.740;2023-04-06T07:18:30;99516.69;;;6.31;100.00
51452;BME280;37521;52.020;-1.740;2023-04-06T07:21:02;99513.16;;;6.32;100.00
51452;BME280;37521;52.020;-1.740;2023-04-06T07:23:30;99516.56;;;6.34;100.00
51452;BME280;37521;52.020;-1.740;2023-04-06T07:25:59;99519.16;;;6.36;100.00
51452;BME280;37521;52.020;-1.740;2023-04-06T07:28:27;99525.06;;;6.41;100.00
51452;BME280;37521;52.020;-1.740;2023-04-06T07:30:57;99520.50;;;6.46;100.00
51452;BME280;37521;52.020;-1.740;2023-04-06T07:33:25;99538.56;;;6.53;100.00
51452;BME280;37521;52.020;-1.740;2023-04-06T07:35:57;99528.63;;;6.62;100.00
51452;BME280;37521;52.020;-1.740;2023-04-06T07:38:26;99534.56;;;6.67;100.00
51452;BME280;37521;52.020;-1.740;2023-04-06T07:40:55;99540.38;;;6.75;100.00
51452;BME280;37521;52.020;-1.740;2023-04-06T07:43:23;99541.00;;;6.81;100.00
51452;BME280;37521;52.020;-1.740;2023-04-06T07:45:52;99536.44;;;6.87;100.00
51452;BME280;37521;52.020;-1.740;2023-04-06T07:48:23;99537.06;;;6.93;100.00
51452;BME280;37521;52.020;-1.740;2023-04-06T07:50:51;99533.50;;;6.94;100.00
51452;BME280;37521;52.020;-1.740;2023-04-06T07:53:20;99532.66;;;6.94;100.00
51452;BME280;37521;52.020;-1.740;2023-04-06T07:55:48;99534.97;;;7.01;100.00
51452;BME280;37521;52.020;-1.740;2023-04-06T07:58:16;99532.09;;;7.09;100.00
51452;BME280;37521;52.020;-1.740;2023-04-06T08:00:44;99534.50;;;7.14;100.00
51452;BME280;37521;52.020;-1.740;2023-04-06T08:03:12;99532.69;;;7.16;100.00
51452;BME280;37521;52.020;-1.740;2023-04-06T08:05:42;99534.00;;;7.26;100.00
51452;BME280;37521;52.020;-1.740;2023-04-06T08:08:10;99539.09;;;7.30;100.00
51452;BME280;37521;52.020;-1.740;2023-04-06T08:10:39;99545.00;;;7.35;100.00
51452;BME280;37521;52.020;-1.740;2023-04-06T08:13:07;99544.81;;;7.40;100.00
51452;BME280;37521;52.020;-1.740;2023-04-06T08:15:36;99540.09;;;7.48;100.00
51452;BME280;37521;52.020;-1.740;2023-04-06T08:18:05;99539.72;;;7.57;100.00
51452;BME280;37521;52.020;-1.740;2023-04-06T08:20:34;99547.28;;;7.65;100.00
51452;BME280;37521;52.020;-1.740;2023-04-06T08:23:03;99548.81;;;7.71;100.00
51452;BME280;37521;52.020;-1.740;2023-04-06T08:25:34;99549.75;;;7.70;100.00
51452;BME280;37521;52.020;-1.740;2023-04-06T08:28:02;99551.69;;;7.64;100.00
51452;BME280;37521;52.020;-1.740;2023-04-06T08:30:31;99551.41;;;7.50;100.00
51452;BME280;37521;52.020;-1.740;2023-04-06T08:32:59;99551.72;;;7.43;100.00
51452;BME280;37521;52.020;-1.740;2023-04-06T08:35:27;99557.94;;;7.40;100.00
51452;BME280;37521;52.020;-1.740;2023-04-06T08:37:57;99550.38;;;7.32;100.00
51452;BME280;37521;52.020;-1.740;2023-04-06T08:40:27;99557.72;;;7.24;100.00
51452;BME280;37521;52.020;-1.740;2023-04-06T08:42:56;99564.91;;;7.19;100.00
51452;BME280;37521;52.020;-1.740;2023-04-06T08:45:29;99559.84;;;7.15;100.00
51452;BME280;37521;52.020;-1.740;2023-04-06T08:47:57;99562.59;;;7.12;100.00
51452;BME280;37521;52.020;-1.740;2023-04-06T08:50:29;99560.97;;;7.09;100.00
51452;BME280;37521;52.020;-1.740;2023-04-06T08:52:58;99567.00;;;7.11;100.00
51452;BME280;37521;52.020;-1.740;2023-04-06T08:55:29;99571.50;;;7.07;100.00
51452;BME280;37521;52.020;-1.740;2023-04-06T08:57:58;99573.19;;;7.08;100.00
51452;BME280;37521;52.020;-1.740;2023-04-06T09:00:28;99574.81;;;7.13;100.00
51452;BME280;37521;52.020;-1.740;2023-04-06T09:02:57;99568.41;;;7.20;100.00
51452;BME280;37521;52.020;-1.740;2023-04-06T09:05:26;99577.97;;;7.21;100.00
51452;BME280;37521;52.020;-1.740;2023-04-06T09:07:54;99582.19;;;7.25;100.00
51452;BME280;37521;52.020;-1.740;2023-04-06T09:10:23;99576.28;;;7.20;100.00
51452;BME280;37521;52.020;-1.740;2023-04-06T09:13:04;99573.16;;;7.10;100.00
51452;BME280;37521;52.020;-1.740;2023-04-06T09:15:33;99585.66;;;7.03;100.00
51452;BME280;37521;52.020;-1.740;2023-04-06T09:18:01;99592.72;;;7.01;100.00
51452;BME280;37521;52.020;-1.740;2023-04-06T09:20:30;99589.69;;;7.12;100.00
51452;BME280;37521;52.020;-1.740;2023-04-06T09:22:58;99583.50;;;7.36;100.00
51452;BME280;37521;52.020;-1.740;2023-04-06T09:25:26;99575.91;;;7.51;100.00
51452;BME280;37521;52.020;-1.740;2023-04-06T09:28:04;99582.56;;;7.59;100.00
51452;BME280;37521;52.020;-1.740;2023-04-06T09:30:34;99591.84;;;7.88;100.00
51452;BME280;37521;52.020;-1.740;2023-04-06T09:33:02;99580.38;;;8.11;100.00
51452;BME280;37521;52.020;-1.740;2023-04-06T09:35:31;99589.19;;;8.31;100.00
51452;BME280;37521;52.020;-1.740;2023-04-06T09:38:10;99582.81;;;8.36;100.00
51452;BME280;37521;52.020;-1.740;2023-04-06T09:40:48;99591.31;;;8.43;100.00
51452;BME280;37521;52.020;-1.740;2023-04-06T09:43:28;99596.16;;;8.52;100.00
51452;BME280;37521;52.020;-1.740;2023-04-06T09:45:56;99603.94;;;8.93;100.00
51452;BME280;37521;52.020;-1.740;2023-04-06T09:48:26;99604.91;;;9.47;100.00
51452;BME280;37521;52.020;-1.740;2023-04-06T09:50:59;99601.56;;;9.79;100.00
51452;BME280;37521;52.020;-1.740;2023-04-06T09:53:31;99605.13;;;10.13;100.00
51452;BME280;37521;52.020;-1.740;2023-04-06T09:56:06;99597.63;;;10.40;100.00
51452;BME280;37521;52.020;-1.740;2023-04-06T09:58:43;99596.88;;;10.71;100.00
51452;BME280;37521;52.020;-1.740;2023-04-06T10:01:15;99605.44;;;10.59;100.00
51452;BME280;37521;52.020;-1.740;2023-04-06T10:03:51;99604.63;;;10.24;100.00
51452;BME280;37521;52.020;-1.740;2023-04-06T10:06:23;99616.47;;;9.98;100.00
51452;BME280;37521;52.020;-1.740;2023-04-06T10:08:58;99618.25;;;9.97;100.00
51452;BME280;37521;52.020;-1.740;2023-04-06T10:11:28;99623.44;;;9.99;100.00
51452;BME280;37521;52.020;-1.740;2023-04-06T10:13:58;99619.88;;;10.00;100.00
51452;BME280;37521;52.020;-1.740;2023-04-06T10:16:26;99616.31;;;10.01;100.00
51452;BME280;37521;52.020;-1.740;2023-04-06T10:19:00;99614.34;;;10.22;100.00
51452;BME280;37521;52.020;-1.740;2023-04-06T10:21:30;99613.97;;;10.47;100.00
51452;BME280;37521;52.020;-1.740;2023-04-06T10:24:01;99615.81;;;10.62;100.00
51452;BME280;37521;52.020;-1.740;2023-04-06T10:26:30;99617.97;;;10.71;100.00
51452;BME280;37521;52.020;-1.740;2023-04-06T10:29:03;99617.34;;;10.83;100.00
51452;BME280;37521;52.020;-1.740;2023-04-06T10:31:32;99617.50;;;10.96;100.00
51452;BME280;37521;52.020;-1.740;2023-04-06T10:34:01;99607.94;;;10.78;100.00
51452;BME280;37521;52.020;-1.740;2023-04-06T10:36:32;99610.41;;;10.48;100.00
51452;BME280;37521;52.020;-1.740;2023-04-06T10:39:02;99612.81;;;10.52;100.00
51452;BME280;37521;52.020;-1.740;2023-04-06T10:41:32;99616.84;;;10.93;100.00
51452;BME280;37521;52.020;-1.740;2023-04-06T10:44:03;99609.88;;;11.39;100.00
51452;BME280;37521;52.020;-1.740;2023-04-06T10:46:32;99603.53;;;11.73;100.00
51452;BME280;37521;52.020;-1.740;2023-04-06T10:49:10;99615.28;;;11.99;100.00
51452;BME280;37521;52.020;-1.740;2023-04-06T10:51:39;99614.44;;;11.83;100.00
51452;BME280;37521;52.020;-1.740;2023-04-06T10:54:07;99619.81;;;11.02;100.00
51452;BME280;37521;52.020;-1.740;2023-04-06T10:56:37;99644.84;;;9.93;100.00
51452;BME280;37521;52.020;-1.740;2023-04-06T10:59:08;99643.31;;;9.15;100.00
51452;BME280;37521;52.020;-1.740;2023-04-06T11:01:36;99643.06;;;8.82;100.00
51452;BME280;37521;52.020;-1.740;2023-04-06T11:04:04;99639.22;;;8.70;100.00
51452;BME280;37521;52.020;-1.740;2023-04-06T11:06:34;99638.03;;;8.77;100.00
51452;BME280;37521;52.020;-1.740;2023-04-06T11:09:03;99636.41;;;9.50;100.00
51452;BME280;37521;52.020;-1.740;2023-04-06T11:11:31;99624.31;;;10.34;100.00
51452;BME280;37521;52.020;-1.740;2023-04-06T11:14:00;99629.00;;;10.95;100.00
51452;BME280;37521;52.020;-1.740;2023-04-06T11:16:32;99618.06;;;11.18;100.00
51452;BME280;37521;52.020;-1.740;2023-04-06T11:19:01;99625.38;;;11.29;100.00
51452;BME280;37521;52.020;-1.740;2023-04-06T11:21:33;99627.94;;;11.15;100.00
51452;BME280;37521;52.020;-1.740;2023-04-06T11:24:07;99621.13;;;11.11;100.00
51452;BME280;37521;52.020;-1.740;2023-04-06T11:26:40;99623.00;;;11.40;100.00
51452;BME280;37521;52.020;-1.740;2023-04-06T11:29:08;99622.84;;;11.43;100.00
51452;BME280;37521;52.020;-1.740;2023-04-06T11:31:40;99624.19;;;11.51;100.00
51452;BME280;37521;52.020;-1.740;2023-04-06T11:34:10;99626.56;;;11.55;100.00
51452;BME280;37521;52.020;-1.740;2023-04-06T11:36:41;99623.31;;;11.03;100.00
51452;BME280;37521;52.020;-1.740;2023-04-06T11:39:10;99632.28;;;10.50;100.00
51452;BME280;37521;52.020;-1.740;2023-04-06T11:41:38;99630.50;;;10.16;100.00
51452;BME280;37521;52.020;-1.740;2023-04-06T11:44:07;99636.31;;;10.05;100.00
51452;BME280;37521;52.020;-1.740;2023-04-06T11:46:35;99643.78;;;9.97;100.00
51452;BME280;37521;52.020;-1.740;2023-04-06T11:49:05;99662.28;;;9.95;100.00
51452;BME280;37521;52.020;-1.740;2023-04-06T11:51:36;99648.53;;;9.71;100.00
51452;BME280;37521;52.020;-1.740;2023-04-06T11:54:04;99669.38;;;9.40;100.00
51452;BME280;37521;52.020;-1.740;2023-04-06T11:56:33;99671.84;;;9.05;100.00
51452;BME280;37521;52.020;-1.740;2023-04-06T11:59:01;99676.00;;;8.71;100.00
51452;BME280;37521;52.020;-1.740;2023-04-06T12:01:29;99660.34;;;8.48;100.00
51452;BME280;37521;52.020;-1.740;2023-04-06T12:04:06;99673.13;;;8.37;100.00
51452;BME280;37521;52.020;-1.740;2023-04-06T12:06:34;99673.13;;;8.37;100.00
51452;BME280;37521;52.020;-1.740;2023-04-06T12:09:03;99681.28;;;8.51;100.00
51452;BME280;37521;52.020;-1.740;2023-04-06T12:11:31;99681.91;;;8.77;100.00
51452;BME280;37521;52.020;-1.740;2023-04-06T12:13:59;99682.53;;;9.21;100.00
51452;BME280;37521;52.020;-1.740;2023-04-06T12:16:28;99682.28;;;10.18;100.00
51452;BME280;37521;52.020;-1.740;2023-04-06T12:18:56;99661.28;;;10.84;100.00
51452;BME280;37521;52.020;-1.740;2023-04-06T12:21:26;99656.22;;;11.13;100.00
51452;BME280;37521;52.020;-1.740;2023-04-06T12:23:55;99656.59;;;11.38;100.00
51452;BME280;37521;52.020;-1.740;2023-04-06T12:26:23;99659.34;;;11.53;100.00
51452;BME280;37521;52.020;-1.740;2023-04-06T12:28:52;99659.81;;;11.75;100.00
51452;BME280;37521;52.020;-1.740;2023-04-06T12:31:21;99665.41;;;12.16;100.00
51452;BME280;37521;52.020;-1.740;2023-04-06T12:33:52;99654.94;;;12.29;100.00
51452;BME280;37521;52.020;-1.740;2023-04-06T12:36:20;99666.13;;;12.34;100.00
51452;BME280;37521;52.020;-1.740;2023-04-06T12:38:50;99656.91;;;12.55;100.00
51452;BME280;37521;52.020;-1.740;2023-04-06T12:41:20;99668.78;;;12.78;100.00
51452;BME280;37521;52.020;-1.740;2023-04-06T12:43:48;99665.19;;;13.08;100.00
51452;BME280;37521;52.020;-1.740;2023-04-06T12:46:17;99662.63;;;12.78;100.00
51452;BME280;37521;52.020;-1.740;2023-04-06T12:48:45;99670.41;;;12.07;100.00
51452;BME280;37521;52.020;-1.740;2023-04-06T12:51:14;99666.66;;;11.79;100.00
51452;BME280;37521;52.020;-1.740;2023-04-06T12:53:44;99675.53;;;11.62;100.00
51452;BME280;37521;52.020;-1.740;2023-04-06T12:56:14;99677.38;;;11.76;100.00
51452;BME280;37521;52.020;-1.740;2023-04-06T12:58:43;99683.16;;;11.84;100.00
51452;BME280;37521;52.020;-1.740;2023-04-06T13:01:12;99690.34;;;11.33;100.00
51452;BME280;37521;52.020;-1.740;2023-04-06T13:03:41;99680.06;;;10.96;100.00